Welcome to Trans World Virtual Airlines!

Welcome TWVA's Newest Pilot:

TWA2313 Bryan Heald

Not a Trans World pilot yet?
Apply Now!




Sign-in with your pilot id or email, or register

Flight TWA3968

  • Submitted By: Austin Hill
  • Departure Airport: Philadelphia International Airport (KPHL)
  • Arrival Airport: JFK Airport (KJFK)
  • Aircraft: E170 (N173TE)
  • Flight Time: 01.05
  • Date Submitted: 08/12/2018
  • Route: RBV COL JFK
  • Status: Accepted
Flight Details
Gross Revenue:
(66 load / $ 65.00 per unit
$ 4, 290.00
Fuel Cost:
(2970 fuel used @ 0.8 / unit)
$ 2, 376.00

Additional Log Information:

View Log

FS[21:54] Aircraft Title - Embraer 170 Delta
FS[21:54] Aircraft Model - E-170
FS[21:54] Flight Number TWA3968
FS[21:54] Departure KPHL
FS[21:54] Destination KJFK
FS[21:54] Boarding
FS[22:03] Pushing Back
FS[22:10] Taxiing to Runway
FS[22:14] Taking Off
FS[22:14] Taking Off
FS[22:14] 147kts
FS[22:14] pitch angle 6 degrees
FS[22:14] 15062 (lbs) of fuel onboard
FS[22:15] Climbing
FS[22:20] TOC Reached
FS[22:20] Cruise 11000
FS[22:26] TOD Reached
FS[22:26] Descending
FS[22:29] On Approach
FS[22:39] Landing Rate -138fpm
FS[22:39] 13262 (lbs) of fuel onboard
FS[22:39] pitch angle 6 degrees
FS[22:40] Taxiing to Gate
FS[22:41] Arrived
FS[22:58] Max Sim Rate: 1x
FS[22:58] kACARS_Free Version 1.0.1.1

Comments

Commenter Comment
Austin Hill KPHL 122154Z 01304KT 10SM SCT038 30/19 A2998 // KJFK 122254Z 12009KT SCT026 SCT050 BKN250 25/22 A3001

Route Map